首页
METAR-TAF:

METAR-TAF

机场 :

达拉斯/沃思堡国际机场

達拉斯 / 沃思堡, 得克萨斯州, 美国

纬度: 32-53-49N, 经度: 097-01-19W, 海拔: 183米

当前天气观测

该预报发布于1小时和4分钟前的20:53 UTC
风速12节,风向
温度 31°C
湿度 49%
气压 1016 hPa
能見度: 16.1公里
散云层高于5500英尺
多云层高于21000英尺
多云层高于30000英尺

METAR: KDFW 262053Z 17012KT 10SM SCT055 BKN210 BKN300 31/19 A3000 RMK AO2 SLP148 T03110189 56016 $

时间: 16:57 (21:57 UTC)

预报

该预报发布于1小时和7分钟前的20:50 UTC
预报有效从26日的 21点(UTC)到 27日的 24点(UTC)
风速15节,风向南转南东
能見度: 10公里
散云层高于4000英尺
多云层高于25000英尺
从 27日的 1000点(UTC)
风速14节,风向
能見度: 10公里
多云层高于2500英尺
短暂存在
从 27日的 11点(UTC)到 27日的 15点(UTC)
多云层高于1500英尺
从 27日的 1600点(UTC)
风速18节,风向,有时为28节阵风
能見度: 10公里
散云层高于4000英尺

TAF: KDFW 262050Z 2621/2724 16015KT P6SM SCT040 BKN250 FM271000 17014KT P6SM BKN025 TEMPO 2711/2715 BKN015 FM271600 17018G28KT P6SM SCT040

超过4000个机场的气象观测和天气预报(METAR&TAF报告)。

可查询的气象台以黄色和红色小点在地图上表示。

将鼠标移到小点上方,可查看气象台名称。

然后点击查看天气观测和预报。

如需切换地图:点击带黑十字的绿色按钮放大地图;点击带横线的绿色按钮缩小地图;或者点击绿色箭头查看邻近地区的地图。


METAR-TAF: